Синегорье

СКИДКИ НА СМАРТФОНЫ!

Карта отелей и гостиниц, располагающихся рядом с аэропортом Синегорье :

Синегорье Магаданская область 62° 15' 47.2212" N, 150° 45' 10.3212" E
Код аэродрома ИКАО
UHMQ
Код аэродрома RU
УХМЯ
Координаты
N62.26312° E150.75287°
Превышение над уровнем моря
339
Основная полоса
03/21
Курс магнитный
030,6/210,6
Длина основной ВПП
1500
Ширина основной ВПП
35
Покрытие основной ВПП
Твёрдое (цементобетон)
Освещение ВПП
По запросу
Тип: 
Аэродром
Класс аэродрома: 
Принадлежность: 
ГА
Статус: 
Недействующий
Сайт: 
E-mail аэродрома: 
Страна: 
Россия
Регион: 
Магаданская область
Город: 
Дополнительная информация: 
Горный. Оператор: нет данных. Построен в 1978 г. Принимал ВС Ан-2, Ан-12, Ан-24/26, Ан-28, вертолеты всех типов. ИВПП построена из цементобетона, оборудована КПБ и ССО на базе ОМИ. В перспективе планировалось удлинение ВПП до 2300 м, для приема самолетов Ту-154. Начиная с 2000 г. аэропорт не функционирует, выведен из госреестра гражданских аэропортов РФ, вследствие чего ИВПП, здания и сооружения аэропорта подвергаются постепенному разрушению под воздействием больших перепадов температур, осадков, времени и мародеров. Имел БПРМ: 770 Ю, ДПРМ: 380 - ЮЫ.

Скидки на навигаторы!

Найти трансфер

С помощью этой формы Вы можете найти трансфер из аэропорта Синегорье в город, аэропорт или вокзал:

Погода в аэропортах:

Авиационная погода в Усть-Каменогорске

Регион: 
Погода METAR: 
UASK 190255Z 25002MPS 220V330 2100 BR BCFG SCT004 10/07 Q1015 TEMPO 0200 FG BKN002 RMK QBB120 QFE736/0981
Время наблюдения
2022-08-19T02:55:00Z
Температура C
10.0
Точка росы
7.0
Направление ветра
250
Скорость ветра (узлы)
4
Метео видимость
1.3
Облачность
SCT
Нижняя граница облачности (футы)
400
Явления погоды
BR BCFG
Условия полета
IFR
Аэропорт подробнее: 
SCT – разбросанная отдельная облачность;
FG – туман (небо не видно, температура воздуха выше нуля или ноль); BR – дымка (видимость от 1 до 9 км);

Авиационная погода в Братске

Регион: 
Погода METAR: 
UIBB 190400Z 25006MPS 220V290 9000 -SHRA BKN006 OVC019CB 09/09 Q1005 R30/290150 NOSIG RMK QBB190 MT OBSC QFE711/0948
Время наблюдения
2022-08-19T04:00:00Z
Температура C
9.0
Точка росы
9.0
Направление ветра
250
Скорость ветра (узлы)
12
Метео видимость
5.59
Облачность
BKN
OVC
Нижняя граница облачности (футы)
600
1900
Явления погоды
-SHRA
Условия полета
IFR
Аэропорт подробнее: 
BKN – значительная (рассеянная, разорванная) облачность; OVC – сплошная облачность;
-SHRA - слабый ливневой дождь;

Авиационная погода в Ханты-Мансийске

Регион: 
Погода METAR: 
USHH 190400Z 27002MPS 9000 -SHRA BKN004CB 12/12 Q1024 R24/290050 TEMPO 2000 SHRA BKN003 OVC010CB
Время наблюдения
2022-08-19T04:00:00Z
Температура C
12.0
Точка росы
12.0
Направление ветра
270
Скорость ветра (узлы)
4
Метео видимость
5.59
Облачность
BKN
Нижняя граница облачности (футы)
400
Явления погоды
-SHRA
Условия полета
LIFR
Аэропорт подробнее: 
BKN – значительная (рассеянная, разорванная) облачность;
-SHRA - слабый ливневой дождь;

Авиационная погода в Миккели

Регион: 
Погода METAR: 
EFMI 190420Z AUTO 12003KT 9999 VCSH //////CB 20/19 Q1020
Время наблюдения
2022-08-19T04:20:00Z
Температура C
20.0
Точка росы
19.0
Направление ветра
120
Скорость ветра (узлы)
3
Метео видимость
6.21
Облачность
Нижняя граница облачности (футы)
Явления погоды
VCSH
Условия полета